Frostburg, MD (21532)

6:41 PM EST on December 07, 2016 (GMT -0500)
Frost Avenue | | Change Station

Elev 2100 ft 39.66 °N, 78.93 °W | Updated 15 seconds ago

Clear
Clear
33.4 °F
Feels Like 33 °F
N
0.0
Wind Variable Wind from WSW
Gusts 0.0 mph

Today
High -- | Low -- °F
--% Chance of Precip.
Yesterday
High -- | Low -- °F
Precip. -- in
Pressure 30.00 in
Visibility 10.0 miles
Clouds Clear
Windchill 33 °F
Dew Point 19 °F
Humidity 56%
Rainfall 0.15 in
Snow Depth Not available.
7:23 AM 4:51 PM
First Quarter, 57% visible
METAR K2G4 072320Z AUTO 26004KT 10SM CLR M01/M07 A3000 RMK AO1
Pressure 30.00 in
Visibility 10.0 miles
Clouds Clear
Windchill 33 °F
Dew Point 19 °F
Humidity 56%
Rainfall 0.15 in
Snow Depth Not available.
7:23 AM 4:51 PM
First Quarter, 57% visible
METAR K2G4 072320Z AUTO 26004KT 10SM CLR M01/M07 A3000 RMK AO1

10-Day Weather Forecast

Almanac

Astronomy

Dec. 07, 2016 Rise Set
Actual Time
Civil Twilight
Nautical Twilight
Astronomical Twilight
Moon
Length of Visible Light
Length of Day
Tomorrow will be .
, % of the Moon is Illuminated

Today's Extremes

State Highs State Lows

Community

WunderPhotos

Upload Photos

1,956,220 photos uploaded!

WunderBlog® & News

Nearby

Air Quality

  Air Quality AQ Index Pollutant
Not available.

Snow Depth

Station Depth Elevation

Earthquake Activity

City Distance Mag. Time & Date
Minimum magnitude displayed is 2.5.

Coastal Water Temperatures

Place Temperature

Stations

Nearby Weather Stations

Station Location Temp. Windchill Dew Point Humidity Wind Precip. Elev Updated Type
                   

Watches & Warnings

There are currently no watches in effect.